Time;durP1;ratioP1;P1;durP2;ratioP2;P2;SDS_P1;SDS_P2;PMS_P1;PMS_P2;Temp;Humidity;BMP_temperature;BMP_pressure;BME280_temperature;BME280_humidity;BME280_pressure;Samples;Min_cycle;Max_cycle;Signal;HPM_P1;HPM_P2
2021/09/25 00:03:15;;;;;;;50.10;46.63;;;;;;;18.05;100.00;101609.57;1940749;74;31116;-71
2021/09/25 00:08:39;;;;;;;49.77;45.97;;;;;;;18.13;100.00;101605.16;1940795;74;31038;-71
2021/09/25 00:14:03;;;;;;;47.63;43.93;;;;;;;18.11;100.00;101611.09;1940817;74;31050;-72
2021/09/25 00:19:30;;;;;;;51.17;47.47;;;;;;;18.11;100.00;101608.85;1941117;74;31176;-71
2021/09/25 00:24:54;;;;;;;52.17;48.43;;;;;;;18.14;100.00;101609.05;1940994;74;31607;-72
2021/09/25 00:30:19;;;;;;;50.63;46.93;;;;;;;18.06;100.00;101604.75;1940783;74;31040;-72
2021/09/25 00:35:43;;;;;;;52.17;48.27;;;;;;;17.99;100.00;101605.20;1940743;74;31133;-72
2021/09/25 00:41:09;;;;;;;49.67;45.47;;;;;;;18.05;100.00;101606.77;1941037;74;33481;-72
2021/09/25 00:46:34;;;;;;;51.93;48.00;;;;;;;18.00;100.00;101608.84;1940784;74;31060;-73
2021/09/25 00:51:58;;;;;;;49.33;45.53;;;;;;;18.01;100.00;101601.48;1940806;74;31033;-72
2021/09/25 00:57:23;;;;;;;49.73;45.83;;;;;;;18.02;100.00;101603.16;1941003;74;33711;-72
2021/09/25 01:02:55;;;;;;;50.10;46.10;;;;;;;18.02;100.00;101603.16;1941053;74;33645;-71
2021/09/25 01:08:22;;;;;;;52.67;48.53;;;;;;;17.99;100.00;101593.95;1940914;74;31598;-71
2021/09/25 01:13:47;;;;;;;49.93;46.00;;;;;;;18.06;100.00;101597.72;1940849;74;31260;-71
2021/09/25 01:19:11;;;;;;;51.40;47.40;;;;;;;18.08;100.00;101601.90;1940934;74;31133;-71
2021/09/25 01:24:36;;;;;;;49.77;45.87;;;;;;;18.09;100.00;101605.55;1940995;74;31812;-72
2021/09/25 01:30:09;;;;;;;50.80;46.90;;;;;;;18.04;100.00;101593.84;1941010;74;31128;-73
2021/09/25 01:35:34;;;;;;;49.17;45.47;;;;;;;18.08;100.00;101587.00;1940803;74;31046;-72
2021/09/25 01:40:59;;;;;;;47.87;44.47;;;;;;;18.05;100.00;101585.67;1940929;74;31107;-71
2021/09/25 01:46:25;;;;;;;48.10;44.50;;;;;;;18.11;100.00;101589.17;1940691;74;33091;-72
2021/09/25 01:51:49;;;;;;;49.57;45.67;;;;;;;18.13;100.00;101593.34;1940992;74;31666;-72
2021/09/25 01:57:14;;;;;;;47.63;44.13;;;;;;;18.19;100.00;101601.06;1940716;74;31123;-72
2021/09/25 02:02:39;;;;;;;48.83;45.23;;;;;;;18.17;100.00;101605.63;1940762;74;31043;-72
2021/09/25 02:08:06;;;;;;;49.20;45.50;;;;;;;18.16;100.00;101605.92;1941035;74;31571;-71
2021/09/25 02:13:30;;;;;;;50.07;46.27;;;;;;;18.19;100.00;101599.09;1940793;74;31049;-72
2021/09/25 02:18:55;;;;;;;50.80;47.10;;;;;;;18.21;100.00;101588.94;1940863;74;31831;-71
2021/09/25 02:24:19;;;;;;;48.17;44.57;;;;;;;18.26;100.00;101590.80;1940748;74;31113;-71
2021/09/25 02:29:43;;;;;;;50.37;46.57;;;;;;;18.26;100.00;101587.41;1940794;74;31193;-71
2021/09/25 02:35:09;;;;;;;48.83;45.23;;;;;;;18.17;100.00;101598.59;1940879;74;31048;-72
2021/09/25 02:40:34;;;;;;;48.47;44.90;;;;;;;18.21;100.00;101597.38;1940738;74;33074;-72
2021/09/25 02:45:58;;;;;;;47.77;44.17;;;;;;;18.23;100.00;101582.40;1940959;74;31599;-71
2021/09/25 02:51:42;;;;;;;47.33;43.90;;;;;;;18.24;100.00;101579.85;2009614;71;33486;-72
2021/09/25 02:57:07;;;;;;;48.33;44.77;;;;;;;18.22;100.00;101586.39;1940810;74;31262;-72
2021/09/25 03:02:32;;;;;;;46.97;43.67;;;;;;;18.22;100.00;101577.11;1940936;74;31567;-71
2021/09/25 03:07:56;;;;;;;47.00;43.33;;;;;;;18.23;100.00;101578.78;1940734;74;31070;-72
2021/09/25 03:13:20;;;;;;;48.33;44.77;;;;;;;18.22;100.00;101575.71;1940959;74;31051;-73
2021/09/25 03:18:45;;;;;;;46.33;42.83;;;;;;;18.25;100.00;101571.68;1940883;74;31247;-72
2021/09/25 03:24:09;;;;;;;47.27;43.97;;;;;;;18.27;100.00;101565.14;1940955;74;31528;-72
2021/09/25 03:29:34;;;;;;;47.17;43.77;;;;;;;18.26;100.00;101562.67;1940653;74;31045;-71
2021/09/25 03:34:58;;;;;;;45.87;42.50;;;;;;;18.11;100.00;101556.84;1940869;74;33438;-72
2021/09/25 03:40:23;;;;;;;48.30;44.60;;;;;;;18.16;100.00;101554.73;1940798;74;31649;-71
2021/09/25 03:45:48;;;;;;;48.00;44.40;;;;;;;18.16;100.00;101551.09;1940881;74;31056;-72
2021/09/25 03:51:13;;;;;;;48.43;45.13;;;;;;;18.14;100.00;101561.24;1940774;74;31041;-72
2021/09/25 03:56:38;;;;;;;48.67;45.17;;;;;;;18.10;100.00;101558.81;1940731;74;31054;-72
2021/09/25 04:02:02;;;;;;;52.53;48.73;;;;;;;18.06;100.00;101551.33;1867034;74;39552;-72
2021/09/25 04:07:27;;;;;;;48.77;45.17;;;;;;;18.11;100.00;101559.08;1940765;74;31031;-72
2021/09/25 04:12:51;;;;;;;47.43;44.03;;;;;;;18.11;100.00;101559.08;1940716;74;33146;-72
2021/09/25 04:18:16;;;;;;;46.63;43.30;;;;;;;18.13;100.00;101557.36;1940726;74;33345;-72
2021/09/25 04:23:41;;;;;;;47.97;44.47;;;;;;;18.15;100.00;101551.66;1941020;74;31550;-71
2021/09/25 04:29:06;;;;;;;46.70;43.30;;;;;;;18.17;100.00;101545.16;1940869;74;31068;-71
2021/09/25 04:34:31;;;;;;;44.97;41.77;;;;;;;18.12;100.00;101555.13;1940794;74;31119;-71
2021/09/25 04:39:56;;;;;;;46.47;43.10;;;;;;;18.00;100.00;101549.81;1940784;74;31131;-72
2021/09/25 04:45:21;;;;;;;48.23;44.80;;;;;;;18.03;100.00;101550.00;1940719;74;31152;-71
2021/09/25 04:50:45;;;;;;;48.20;44.90;;;;;;;18.09;100.00;101550.14;1940734;74;31140;-72
2021/09/25 04:56:11;;;;;;;47.83;44.30;;;;;;;18.04;100.00;101544.64;1940803;74;31053;-72
2021/09/25 05:01:35;;;;;;;46.30;43.00;;;;;;;17.98;100.00;101544.50;1940855;74;31067;-73
2021/09/25 05:07:00;;;;;;;46.90;43.70;;;;;;;18.02;100.00;101548.91;1940814;74;31121;-71
2021/09/25 05:12:27;;;;;;;49.70;46.20;;;;;;;18.06;100.00;101530.25;1940882;74;31152;-71
2021/09/25 05:17:52;;;;;;;50.33;46.90;;;;;;;17.91;100.00;101544.12;1940826;74;31155;-72
2021/09/25 05:23:17;;;;;;;46.67;43.40;;;;;;;17.94;100.00;101551.07;1940836;74;31672;-71
2021/09/25 05:28:41;;;;;;;46.77;43.67;;;;;;;17.97;100.00;101537.20;1940830;74;31060;-71
2021/09/25 05:34:05;;;;;;;46.30;43.10;;;;;;;17.91;100.00;101546.92;1940812;74;31051;-71
2021/09/25 05:39:30;;;;;;;45.97;42.83;;;;;;;17.92;100.00;101542.14;1940948;74;33500;-72
2021/09/25 05:44:54;;;;;;;47.03;43.70;;;;;;;17.92;100.00;101543.55;1940744;74;33097;-72
2021/09/25 05:50:20;;;;;;;44.30;41.00;;;;;;;17.93;100.00;101551.64;1941148;74;31084;-72
2021/09/25 05:55:45;;;;;;;45.87;42.43;;;;;;;17.98;100.00;101542.25;1940695;74;31140;-72
2021/09/25 06:01:10;;;;;;;49.00;45.50;;;;;;;17.94;100.00;101543.47;1941019;74;31116;-72
2021/09/25 06:06:34;;;;;;;47.90;44.50;;;;;;;17.97;100.00;101541.42;1941025;74;31129;-72
2021/09/25 06:11:59;;;;;;;49.87;46.47;;;;;;;17.95;100.00;101542.90;1941004;74;31050;-73
2021/09/25 06:17:24;;;;;;;48.43;44.77;;;;;;;17.94;100.00;101531.39;1940978;74;31597;-73
2021/09/25 06:22:48;;;;;;;48.27;44.73;;;;;;;18.06;100.00;101544.30;1941008;74;31567;-71
2021/09/25 06:28:12;;;;;;;46.13;42.73;;;;;;;18.02;100.00;101535.68;1940772;74;31085;-72
2021/09/25 06:33:37;;;;;;;50.30;46.70;;;;;;;18.02;100.00;101538.48;1941074;74;31147;-73
2021/09/25 06:39:03;;;;;;;48.53;45.10;;;;;;;17.97;100.00;101533.59;1940803;74;31155;-72
2021/09/25 06:44:28;;;;;;;50.97;47.20;;;;;;;17.99;100.00;101536.33;1941010;74;33493;-72
2021/09/25 06:49:53;;;;;;;50.03;46.47;;;;;;;18.00;100.00;101532.94;1940868;74;31024;-72
2021/09/25 06:55:19;;;;;;;50.43;46.83;;;;;;;18.02;100.00;101531.46;1940771;74;31043;-74
2021/09/25 07:00:47;;;;;;;50.00;46.20;;;;;;;17.93;100.00;101525.51;1940852;74;31111;-73
2021/09/25 07:06:10;;;;;;;50.00;46.10;;;;;;;18.04;100.00;101548.02;1940985;74;31509;-72
2021/09/25 07:11:36;;;;;;;51.93;47.93;;;;;;;18.09;100.00;101547.91;1940968;74;31608;-72
2021/09/25 07:17:19;;;;;;;53.63;49.43;;;;;;;17.99;100.00;101543.36;2009871;71;31368;-73
2021/09/25 07:22:46;;;;;;;59.30;54.80;;;;;;;17.92;100.00;101539.33;1940748;74;31106;-74
2021/09/25 07:28:10;;;;;;;58.70;54.17;;;;;;;17.91;100.00;101538.49;1941087;74;31073;-71
2021/09/25 07:33:36;;;;;;;58.80;54.50;;;;;;;17.95;100.00;101545.72;1940815;74;31094;-72
2021/09/25 07:39:01;;;;;;;58.67;54.47;;;;;;;18.09;100.00;101543.69;1940936;74;31022;-70
2021/09/25 07:44:25;;;;;;;58.07;53.83;;;;;;;18.03;100.00;101550.00;1940976;74;31110;-72
2021/09/25 07:49:50;;;;;;;57.23;53.17;;;;;;;18.08;100.00;101558.89;1940867;74;31018;-74
2021/09/25 07:55:16;;;;;;;58.07;53.97;;;;;;;18.60;100.00;101566.59;1940792;74;31123;-72
2021/09/25 08:00:41;;;;;;;54.10;50.47;;;;;;;18.08;100.00;101572.95;1940799;74;31135;-73
2021/09/25 08:06:08;;;;;;;55.53;51.53;;;;;;;18.06;100.00;101566.23;1940735;74;31023;-73
2021/09/25 08:11:32;;;;;;;53.00;49.20;;;;;;;18.02;100.00;101575.04;1940843;74;31034;-73
2021/09/25 08:16:57;;;;;;;51.73;47.90;;;;;;;18.03;100.00;101584.31;1940975;74;33462;-73
2021/09/25 08:22:22;;;;;;;49.00;45.60;;;;;;;18.09;100.00;101585.86;1940804;74;31069;-73
2021/09/25 08:27:49;;;;;;;50.87;47.27;;;;;;;18.12;100.00;101586.63;1940977;74;33448;-73
2021/09/25 08:33:14;;;;;;;50.17;46.67;;;;;;;18.10;100.00;101592.55;1940739;74;31041;-71
2021/09/25 08:38:39;;;;;;;50.63;47.07;;;;;;;18.18;100.00;101600.23;1940919;74;31730;-73
2021/09/25 08:44:03;;;;;;;53.33;49.60;;;;;;;18.16;100.00;101601.14;1940781;74;31145;-73
2021/09/25 08:49:29;;;;;;;52.20;48.60;;;;;;;18.18;100.00;101596.01;1940926;74;31529;-72
2021/09/25 08:54:53;;;;;;;52.43;49.03;;;;;;;18.37;100.00;101591.62;1940863;74;31033;-72
2021/09/25 09:00:38;;;;;;;52.40;49.10;;;;;;;18.31;100.00;101591.52;1940735;74;31042;-73
2021/09/25 09:06:23;;;;;;;51.00;47.90;;;;;;;18.50;100.00;101587.07;1940906;74;31183;-72
2021/09/25 09:11:50;;;;;;;49.77;46.47;;;;;;;18.68;100.00;101576.22;1940725;74;31055;-73
2021/09/25 09:17:19;;;;;;;52.43;48.90;;;;;;;18.74;100.00;101569.89;1940798;74;31053;-71
2021/09/25 09:22:45;;;;;;;48.53;45.33;;;;;;;18.79;100.00;101571.13;1940815;74;31140;-74
2021/09/25 09:28:13;;;;;;;51.43;48.13;;;;;;;18.89;100.00;101573.68;1940966;74;31549;-74
2021/09/25 09:33:49;;;;;;;50.57;47.27;;;;;;;18.87;100.00;101570.38;2022410;71;30883;-73
2021/09/25 09:39:21;;;;;;;48.23;45.07;;;;;;;18.85;100.00;101569.28;1940926;74;33454;-72
2021/09/25 09:44:50;;;;;;;48.13;45.03;;;;;;;18.99;100.00;101557.34;1941027;74;31556;-74
2021/09/25 09:50:17;;;;;;;48.53;45.43;;;;;;;19.13;100.00;101560.03;1941044;74;33464;-72
2021/09/25 09:56:19;;;;;;;46.17;43.17;;;;;;;19.23;100.00;101554.11;2009748;70;33292;-71
2021/09/25 10:01:54;;;;;;;49.13;46.03;;;;;;;19.33;100.00;101552.41;1941108;74;31557;-72
2021/09/25 10:07:25;;;;;;;51.93;48.70;;;;;;;19.43;100.00;101542.26;1940908;74;31228;-72
2021/09/25 10:12:49;;;;;;;50.53;47.47;;;;;;;19.38;100.00;101542.98;1940963;74;31107;-72
2021/09/25 10:18:19;;;;;;;53.17;50.07;;;;;;;19.49;100.00;101542.95;1941117;74;31127;-71
2021/09/25 10:23:48;;;;;;;56.40;53.30;;;;;;;19.48;100.00;101549.73;1941129;74;31568;-71
2021/09/25 10:29:18;;;;;;;52.30;49.20;;;;;;;19.46;100.00;101539.38;1940942;74;31051;-72
2021/09/25 10:34:59;;;;;;;54.60;51.60;;;;;;;19.39;100.00;101538.98;1941017;74;33526;-71
2021/09/25 10:40:28;;;;;;;54.23;51.03;;;;;;;19.51;100.00;101536.41;1941066;74;31100;-70
2021/09/25 10:45:55;;;;;;;53.27;50.10;;;;;;;19.73;100.00;101529.78;1940912;74;31219;-71
2021/09/25 10:51:23;;;;;;;49.70;46.80;;;;;;;19.95;100.00;101527.64;1940953;74;31131;-73
2021/09/25 10:57:11;;;;;;;50.20;47.17;;;;;;;20.09;100.00;101522.42;2009732;71;30990;-71
2021/09/25 11:03:15;;;;;;;51.43;48.43;;;;;;;19.88;100.00;101511.81;1941082;74;31118;-70
2021/09/25 11:09:00;;;;;;;52.53;49.63;;;;;;;19.61;100.00;101511.29;1940958;74;31050;-70
2021/09/25 11:14:35;;;;;;;54.57;51.50;;;;;;;19.66;100.00;101509.73;1941089;74;31105;-72
2021/09/25 11:20:05;;;;;;;52.37;49.37;;;;;;;19.63;100.00;101511.23;1941132;74;33438;-70
2021/09/25 11:25:30;;;;;;;53.17;50.07;;;;;;;19.72;100.00;101514.05;1940825;74;31089;-74
2021/09/25 11:30:54;;;;;;;48.80;45.90;;;;;;;19.59;100.00;101517.85;1941032;74;31723;-70
2021/09/25 11:36:20;;;;;;;50.07;47.07;;;;;;;19.71;100.00;101525.91;1940913;74;31059;-75
2021/09/25 11:41:50;;;;;;;47.97;45.17;;;;;;;19.66;100.00;101517.60;1940892;74;31112;-70
2021/09/25 11:47:24;;;;;;;52.83;49.83;;;;;;;19.58;100.00;101507.16;1940912;74;31041;-70
2021/09/25 11:52:51;;;;;;;51.70;48.63;;;;;;;19.54;100.00;101499.11;1941110;74;31631;-73
2021/09/25 11:58:24;;;;;;;52.93;49.83;;;;;;;19.58;100.00;101488.84;1940904;74;31058;-74
2021/09/25 12:03:50;;;;;;;50.30;47.40;;;;;;;19.62;100.00;101489.00;1940991;74;31011;-71
2021/09/25 12:09:14;;;;;;;53.03;49.93;;;;;;;19.76;100.00;101481.22;1940831;74;31140;-71
2021/09/25 12:14:46;;;;;;;52.37;49.27;;;;;;;19.66;100.00;101485.77;1940840;74;31153;-74
2021/09/25 12:20:22;;;;;;;50.50;47.60;;;;;;;19.69;100.00;101478.05;1940754;74;31070;-74
2021/09/25 12:25:48;;;;;;;51.17;48.07;;;;;;;19.66;100.00;101464.05;1940821;74;31049;-74
2021/09/25 12:31:31;;;;;;;48.00;45.10;;;;;;;19.69;100.00;101451.27;1941095;74;31142;-71
2021/09/25 12:37:16;;;;;;;49.17;46.27;;;;;;;19.77;100.00;101437.75;2009687;71;30932;-74
2021/09/25 12:42:42;;;;;;;48.57;45.67;;;;;;;20.37;100.00;101440.48;1941046;74;31522;-71
2021/09/25 12:48:15;;;;;;;51.93;48.97;;;;;;;20.23;100.00;101438.44;1941071;74;31546;-71
2021/09/25 12:53:56;;;;;;;50.27;47.43;;;;;;;20.29;100.00;101439.34;1940828;74;31177;-71
2021/09/25 12:59:32;;;;;;;49.03;46.33;;;;;;;20.64;100.00;101449.10;1941003;74;31559;-72
2021/09/25 13:05:00;;;;;;;48.95;46.08;;;;;;;20.64;100.00;101435.81;1940820;74;31043;-73
2021/09/25 13:10:50;;;;;;;49.27;46.43;;;;;;;20.56;100.00;101432.45;2009635;71;30881;-73
2021/09/25 13:16:21;;;;;;;49.07;46.17;;;;;;;20.41;100.00;101437.23;1940999;74;31541;-71
2021/09/25 13:21:46;;;;;;;50.17;47.17;;;;;;;20.03;100.00;101434.31;1940868;74;31069;-75
2021/09/25 13:27:11;;;;;;;51.33;48.30;;;;;;;19.86;100.00;101435.75;1941591;74;31110;-76
2021/09/25 13:32:43;;;;;;;47.00;43.97;;;;;;;20.27;100.00;101432.36;1940985;74;31139;-72
2021/09/25 13:38:07;;;;;;;48.70;45.77;;;;;;;20.56;100.00;101425.40;1940914;74;31121;-72
2021/09/25 13:43:31;;;;;;;49.97;47.03;;;;;;;20.56;100.00;101431.04;1940871;74;31139;-72
2021/09/25 13:48:56;;;;;;;50.20;47.35;;;;;;;20.78;100.00;101423.72;1941052;74;31058;-72
2021/09/25 13:54:21;;;;;;;49.73;46.93;;;;;;;20.60;100.00;101420.73;1940863;74;31024;-72
2021/09/25 13:59:45;;;;;;;53.47;50.43;;;;;;;20.17;100.00;101426.49;1941078;74;31662;-72
2021/09/25 14:05:13;;;;;;;54.77;51.57;;;;;;;20.27;100.00;101417.68;1940978;74;31122;-73
2021/09/25 14:10:40;;;;;;;54.60;51.40;;;;;;;19.91;100.00;101418.66;1940853;74;31034;-72
2021/09/25 14:16:08;;;;;;;52.80;49.50;;;;;;;19.71;100.00;101423.59;1940881;74;31075;-72
2021/09/25 14:21:35;;;;;;;53.53;50.20;;;;;;;19.78;100.00;101418.27;1940908;74;31058;-72
2021/09/25 14:26:59;;;;;;;51.20;47.90;;;;;;;19.69;100.00;101406.17;1940909;74;31040;-70
2021/09/25 14:32:23;;;;;;;50.97;47.87;;;;;;;19.95;100.00;101394.27;1941074;74;31059;-74
2021/09/25 14:37:48;;;;;;;50.67;47.70;;;;;;;19.98;100.00;101392.22;1940991;74;31044;-71
2021/09/25 14:43:12;;;;;;;51.87;48.67;;;;;;;19.91;100.00;101392.71;1940987;74;31093;-71
2021/09/25 14:48:38;;;;;;;49.87;46.90;;;;;;;19.74;100.00;101378.64;1941329;74;31194;-72
2021/09/25 14:54:04;;;;;;;50.67;47.77;;;;;;;19.86;100.00;101375.13;1941238;74;31127;-72
2021/09/25 14:59:28;;;;;;;50.80;47.70;;;;;;;19.74;100.00;101377.23;1941138;74;31530;-69
2021/09/25 15:04:53;;;;;;;50.93;47.73;;;;;;;19.73;100.00;101374.73;1941504;74;31627;-73
2021/09/25 15:10:18;;;;;;;48.30;45.20;;;;;;;19.64;100.00;101362.67;1941478;74;31644;-75
2021/09/25 15:15:50;;;;;;;50.33;47.37;;;;;;;19.64;100.00;101364.89;1940922;74;31040;-73
2021/09/25 15:21:14;;;;;;;49.30;46.40;;;;;;;19.60;100.00;101359.67;1941525;74;31634;-76
2021/09/25 15:26:39;;;;;;;47.90;45.00;;;;;;;19.64;100.00;101355.02;1941273;74;31040;-75
2021/09/25 15:32:04;;;;;;;47.90;44.90;;;;;;;19.71;100.00;101358.76;1941152;74;31609;-75
2021/09/25 15:37:32;;;;;;;48.53;45.30;;;;;;;19.65;100.00;101358.09;1941455;74;33550;-76
2021/09/25 15:43:14;;;;;;;48.07;45.17;;;;;;;19.47;100.00;101374.77;1994858;71;30905;-70
2021/09/25 15:48:59;;;;;;;48.67;45.87;;;;;;;19.40;100.00;101378.64;2014937;71;31387;-69
2021/09/25 15:54:25;;;;;;;48.43;45.33;;;;;;;19.40;100.00;101375.83;1940902;74;31057;-70
2021/09/25 16:00:13;;;;;;;47.10;44.23;;;;;;;19.32;100.00;101371.02;2000667;71;30829;-73
2021/09/25 16:05:40;;;;;;;48.60;45.63;;;;;;;19.32;100.00;101379.48;1941167;74;31124;-70
2021/09/25 16:11:06;;;;;;;48.97;45.87;;;;;;;19.17;100.00;101370.92;1941084;74;31608;-69
2021/09/25 16:16:30;;;;;;;47.90;44.80;;;;;;;19.18;100.00;101378.22;1940785;74;31056;-72
2021/09/25 16:22:00;;;;;;;49.30;46.20;;;;;;;19.06;100.00;101368.20;1940944;74;31055;-71
2021/09/25 16:27:26;;;;;;;50.27;46.87;;;;;;;19.03;100.00;101361.25;1940909;74;31054;-70
2021/09/25 16:32:51;;;;;;;50.13;46.83;;;;;;;18.90;100.00;101364.20;1940793;74;31191;-71
2021/09/25 16:38:16;;;;;;;49.70;46.40;;;;;;;18.92;100.00;101368.34;1941017;74;33463;-71
2021/09/25 16:43:41;;;;;;;48.07;44.97;;;;;;;18.86;100.00;101365.45;1940929;74;31044;-72
2021/09/25 16:49:05;;;;;;;50.67;47.47;;;;;;;18.89;100.00;101356.34;1940807;74;31129;-75
2021/09/25 16:54:30;;;;;;;52.80;49.40;;;;;;;18.91;100.00;101354.61;1940928;74;31111;-74
2021/09/25 16:59:54;;;;;;;49.63;46.53;;;;;;;19.03;100.00;101342.95;1941008;74;31052;-70
2021/09/25 17:05:19;;;;;;;49.83;46.73;;;;;;;19.08;100.00;101342.76;1940842;74;31112;-72
2021/09/25 17:10:44;;;;;;;50.57;47.47;;;;;;;19.10;100.00;101344.67;1940970;74;31100;-71
2021/09/25 17:16:08;;;;;;;51.73;48.43;;;;;;;18.57;100.00;101346.32;1940846;74;31177;-71
2021/09/25 17:21:33;;;;;;;51.30;48.03;;;;;;;18.60;100.00;101351.31;1941084;74;31646;-70
2021/09/25 17:26:57;;;;;;;53.77;50.37;;;;;;;18.39;100.00;101350.80;1940860;74;33083;-70
2021/09/25 17:32:21;;;;;;;50.37;47.07;;;;;;;18.13;100.00;101350.70;1941262;74;31539;-72
2021/09/25 17:37:46;;;;;;;52.37;49.00;;;;;;;18.06;100.00;101354.53;1941098;74;31565;-70
2021/09/25 17:43:12;;;;;;;53.17;49.90;;;;;;;17.91;100.00;101364.80;1941054;74;31355;-71
2021/09/25 17:48:37;;;;;;;54.73;51.37;;;;;;;17.88;100.00;101363.47;1940795;74;31109;-72
2021/09/25 17:54:02;;;;;;;52.00;48.57;;;;;;;17.68;100.00;101367.62;1940992;74;31117;-73
2021/09/25 17:59:27;;;;;;;54.13;50.43;;;;;;;17.61;100.00;101365.02;1940970;74;31752;-69
2021/09/25 18:04:54;;;;;;;50.80;47.40;;;;;;;17.35;100.00;101367.60;1940937;74;33538;-69
2021/09/25 18:10:20;;;;;;;52.70;49.20;;;;;;;17.37;100.00;101375.12;1941079;74;33598;-69
2021/09/25 18:15:46;;;;;;;52.73;49.03;;;;;;;17.39;100.00;101374.23;1941034;74;31571;-71
2021/09/25 18:21:11;;;;;;;54.43;50.90;;;;;;;17.37;100.00;101368.70;1940835;74;31028;-72
2021/09/25 18:26:36;;;;;;;53.50;49.77;;;;;;;16.96;100.00;101370.22;1941119;74;31017;-69
2021/09/25 18:32:00;;;;;;;50.00;46.27;;;;;;;17.00;100.00;101371.24;1941121;74;31137;-73
2021/09/25 18:37:26;;;;;;;53.40;49.50;;;;;;;16.73;100.00;101358.09;1941187;74;33448;-69
2021/09/25 18:42:52;;;;;;;50.30;46.80;;;;;;;16.45;100.00;101360.64;1940967;74;31119;-70
2021/09/25 18:48:21;;;;;;;49.30;45.90;;;;;;;16.42;100.00;101366.31;1940885;74;31177;-75
2021/09/25 18:53:47;;;;;;;48.77;45.47;;;;;;;16.41;100.00;101361.84;1941181;74;31172;-75
2021/09/25 18:59:11;;;;;;;53.00;49.27;;;;;;;16.46;100.00;101351.09;1940948;74;31044;-75
2021/09/25 19:04:36;;;;;;;54.23;50.17;;;;;;;16.32;100.00;101358.11;1940852;74;33045;-70
2021/09/25 19:10:01;;;;;;;54.03;50.23;;;;;;;16.47;100.00;101352.77;1941082;74;33583;-74
2021/09/25 19:15:27;;;;;;;53.03;49.30;;;;;;;16.43;100.00;101350.33;1940905;74;33137;-71
2021/09/25 19:20:58;;;;;;;51.20;47.70;;;;;;;16.28;100.00;101358.47;1941087;74;31542;-77
2021/09/25 19:26:22;;;;;;;53.33;49.63;;;;;;;16.16;100.00;101356.75;1940792;74;32983;-72
2021/09/25 19:31:47;;;;;;;53.17;49.33;;;;;;;16.02;100.00;101365.14;1940972;74;31116;-75
2021/09/25 19:37:12;;;;;;;52.70;49.10;;;;;;;16.04;100.00;101362.87;1940984;74;31119;-75
2021/09/25 19:42:43;;;;;;;52.80;49.07;;;;;;;16.19;100.00;101361.16;1940994;74;31039;-74
2021/09/25 19:48:08;;;;;;;52.17;48.57;;;;;;;16.23;100.00;101355.77;1940902;74;31192;-70
2021/09/25 19:53:33;;;;;;;53.77;49.93;;;;;;;16.30;100.00;101352.80;1940873;74;31167;-70
2021/09/25 19:58:58;;;;;;;56.93;53.03;;;;;;;16.16;100.00;101349.75;1940867;74;31073;-75
2021/09/25 20:04:23;;;;;;;55.07;51.03;;;;;;;16.01;100.00;101345.83;1941064;74;31040;-70
2021/09/25 20:09:48;;;;;;;52.60;48.83;;;;;;;15.95;100.00;101346.52;1940853;74;31031;-74
2021/09/25 20:15:15;;;;;;;55.53;51.57;;;;;;;15.98;100.00;101347.28;1940932;74;31119;-72
2021/09/25 20:20:40;;;;;;;55.80;51.83;;;;;;;15.57;100.00;101369.61;1940918;74;33033;-72
2021/09/25 20:26:05;;;;;;;54.57;50.77;;;;;;;15.62;100.00;101361.66;1940940;74;33128;-70
2021/09/25 20:31:31;;;;;;;54.60;50.70;;;;;;;15.59;100.00;101364.52;1940946;74;33119;-76
2021/09/25 20:36:56;;;;;;;57.20;53.20;;;;;;;15.49;100.00;101362.69;1940919;74;31033;-72
2021/09/25 20:42:21;;;;;;;55.10;51.10;;;;;;;15.62;100.00;101357.47;1941067;74;33558;-73
2021/09/25 20:47:49;;;;;;;56.27;52.30;;;;;;;15.59;100.00;101352.48;1940905;74;33119;-71
2021/09/25 20:53:13;;;;;;;55.97;52.07;;;;;;;15.38;100.00;101344.97;1940910;74;31117;-72
2021/09/25 20:58:39;;;;;;;54.77;50.97;;;;;;;15.30;100.00;101343.70;1941142;74;33606;-72
2021/09/25 21:04:05;;;;;;;57.60;53.40;;;;;;;15.18;100.00;101347.55;1940935;74;33111;-72
2021/09/25 21:09:29;;;;;;;57.93;53.83;;;;;;;15.10;100.00;101347.41;1940900;74;33020;-72
2021/09/25 21:14:54;;;;;;;56.57;52.37;;;;;;;15.02;100.00;101337.14;1940936;74;33101;-73
2021/09/25 21:20:19;;;;;;;59.30;55.00;;;;;;;14.72;100.00;101333.39;1940843;74;32970;-73
2021/09/25 21:25:47;;;;;;;58.03;53.83;;;;;;;14.47;100.00;101333.73;1940936;74;33110;-71
2021/09/25 21:31:11;;;;;;;53.77;49.87;;;;;;;14.46;100.00;101327.31;1940815;74;33014;-73
2021/09/25 21:36:38;;;;;;;54.40;50.70;;;;;;;14.57;100.00;101334.45;1940830;74;32976;-71
2021/09/25 21:42:07;;;;;;;52.33;48.73;;;;;;;14.43;100.00;101332.11;1941051;74;33495;-70
2021/09/25 21:47:31;;;;;;;57.10;53.10;;;;;;;14.35;100.00;101335.58;1940971;74;33556;-71
2021/09/25 21:52:55;;;;;;;57.00;52.80;;;;;;;14.42;100.00;101340.22;1940844;74;33054;-69
2021/09/25 21:58:22;;;;;;;55.70;51.87;;;;;;;14.67;100.00;101339.08;1940721;74;32963;-71
2021/09/25 22:03:52;;;;;;;56.13;51.83;;;;;;;14.56;100.00;101343.13;1940873;74;32974;-69
2021/09/25 22:09:36;;;;;;;55.93;51.73;;;;;;;14.44;100.00;101344.96;2009786;71;33347;-70
2021/09/25 22:15:01;;;;;;;58.40;54.13;;;;;;;14.28;100.00;101339.27;1940720;74;33015;-69
2021/09/25 22:20:26;;;;;;;57.07;52.77;;;;;;;14.38;100.00;101332.73;1940807;74;33023;-69
2021/09/25 22:25:51;;;;;;;52.27;48.50;;;;;;;14.57;100.00;101329.42;1940756;74;33037;-69
2021/09/25 22:31:16;;;;;;;51.80;48.00;;;;;;;14.37;100.00;101327.73;1940911;74;33494;-69
2021/09/25 22:36:45;;;;;;;55.80;51.63;;;;;;;14.33;100.00;101321.05;1940766;74;32957;-69
2021/09/25 22:42:10;;;;;;;51.20;47.57;;;;;;;14.54;100.00;101323.88;1940750;74;33008;-70
2021/09/25 22:47:34;;;;;;;49.67;46.37;;;;;;;14.26;100.00;101319.73;1940745;74;32985;-70
2021/09/25 22:53:00;;;;;;;53.17;49.37;;;;;;;14.11;100.00;101317.97;1940759;74;33172;-69
2021/09/25 22:58:25;;;;;;;48.13;45.03;;;;;;;13.97;100.00;101315.61;1940734;74;33019;-69
2021/09/25 23:03:50;;;;;;;50.73;47.43;;;;;;;13.67;100.00;101312.58;1940935;74;33575;-71
2021/09/25 23:09:14;;;;;;;52.40;48.90;;;;;;;13.72;100.00;101310.30;1940863;74;32987;-69
2021/09/25 23:14:40;;;;;;;53.47;49.97;;;;;;;14.02;100.00;101319.75;1941015;74;33476;-70
2021/09/25 23:20:05;;;;;;;51.93;48.33;;;;;;;14.19;100.00;101322.89;1940978;74;33436;-70
2021/09/25 23:25:30;;;;;;;52.57;49.00;;;;;;;14.23;100.00;101314.74;1940905;74;33075;-69
2021/09/25 23:30:54;;;;;;;56.30;52.30;;;;;;;14.20;100.00;101306.97;1940940;74;33480;-69
2021/09/25 23:36:19;;;;;;;54.83;51.03;;;;;;;14.25;100.00;101306.91;1941009;74;33544;-69
2021/09/25 23:41:43;;;;;;;50.47;47.10;;;;;;;14.17;100.00;101306.98;1940959;74;33038;-69
2021/09/25 23:47:08;;;;;;;50.90;47.43;;;;;;;14.27;100.00;101302.67;1940773;74;33030;-69
2021/09/25 23:52:33;;;;;;;53.73;49.97;;;;;;;14.37;100.00;101299.78;1940722;74;33175;-70
2021/09/25 23:58:00;;;;;;;54.07;50.33;;;;;;;14.40;100.00;101292.75;1940920;74;33049;-71
